| time (UTC) | temp C | wind direction | speed KPH | gust KPH | rain 1hr cm | rain 24hr cm | rain mn cm | humidity % | barometer mb |
| 20260906221603 | 18 | 195 | 3.2 | 9.7 | 0.00 | 0.03 | 0.00 | 57 | 1030.3 |
| 20260906220056 | 18 | 138 | 3.2 | 8.0 | 0.00 | 0.03 | 0.00 | 52 | 1030.2 |
| 20260906214605 | 19 | 100 | 1.6 | 8.0 | 0.00 | 0.03 | 0.00 | 49 | 1030.3 |
| 20260906213103 | 20 | 122 | 4.8 | 12.9 | 0.00 | 0.03 | 0.00 | 47 | 1030.4 |
| 20260906211558 | 20 | 134 | 6.4 | 12.9 | 0.00 | 0.03 | 0.00 | 47 | 1030.4 |
| 20260906210057 | 20 | 117 | 3.2 | 11.3 | 0.00 | 0.03 | 0.00 | 46 | 1030.5 |
| 20260906204646 | 20 | 124 | 4.8 | 12.9 | 0.00 | 0.03 | 0.00 | 46 | 1030.7 |
| 20260906203101 | 20 | 132 | 4.8 | 9.7 | 0.00 | 0.03 | 0.00 | 43 | 1030.7 |
| 20260906201634 | 20 | 63 | 6.4 | 14.5 | 0.00 | 0.03 | 0.00 | 43 | 1030.8 |
| 20260906200104 | 21 | 86 | 8.0 | 14.5 | 0.00 | 0.03 | 0.00 | 40 | 1030.8 |
| 20260906194607 | 21 | 117 | 8.0 | 16.1 | 0.00 | 0.03 | 0.00 | 40 | 1030.8 |
| 20260906193107 | 21 | 77 | 3.2 | 11.3 | 0.00 | 0.03 | 0.00 | 41 | 1030.8 |
| 20260906191618 | 20 | 113 | 3.2 | 16.1 | 0.00 | 0.03 | 0.00 | 43 | 1031.0 |
| 20260906184601 | 21 | 222 | 6.4 | 14.5 | 0.00 | 0.03 | 0.00 | 40 | 1031.3 |
| 20260906183100 | 21 | 129 | 8.0 | 19.3 | 0.00 | 0.03 | 0.00 | 40 | 1031.3 |
| 20260906181607 | 21 | 117 | 9.7 | 20.9 | 0.00 | 0.03 | 0.00 | 41 | 1031.3 |
| 20260906180104 | 20 | 134 | 9.7 | 19.3 | 0.00 | 0.03 | 0.00 | 40 | 1031.4 |
| 20260906174611 | 21 | 96 | 8.0 | 22.5 | 0.00 | 0.03 | 0.00 | 40 | 1031.5 |
| 20260906173054 | 20 | 103 | 9.7 | 16.1 | 0.00 | 0.03 | 0.00 | 41 | 1031.7 |
| 20260906171604 | 21 | 93 | 9.7 | 19.3 | 0.00 | 0.03 | 0.00 | 39 | 1031.7 |
| 20260906170106 | 22 | 76 | 11.3 | 20.9 | 0.00 | 0.03 | 0.00 | 39 | 1031.9 |
| 20260906164558 | 21 | 114 | 6.4 | 19.3 | 0.00 | 0.03 | 0.00 | 38 | 1031.9 |
| 20260906163105 | 20 | 92 | 6.4 | 17.7 | 0.00 | 0.03 | 0.00 | 40 | 1031.9 |
| 20260906161607 | 20 | 98 | 4.8 | 12.9 | 0.00 | 0.03 | 0.00 | 39 | 1032.0 |
| 20260906160101 | 20 | 31 | 6.4 | 16.1 | 0.00 | 0.03 | 0.00 | 40 | 1032.2 |
| 20260906154616 | 20 | 131 | 3.2 | 11.3 | 0.00 | 0.03 | 0.00 | 39 | 1031.8 |
| 20260906153123 | 19 | 80 | 3.2 | 12.9 | 0.00 | 0.03 | 0.00 | 39 | 1031.8 |
| 20260906151602 | 19 | 138 | 4.8 | 11.3 | 0.00 | 0.03 | 0.00 | 40 | 1031.9 |
| 20260906150057 | 19 | 97 | 4.8 | 8.0 | 0.00 | 0.03 | 0.00 | 40 | 1032.1 |
| 20260906144617 | 18 | 132 | 1.6 | 8.0 | 0.00 | 0.03 | 0.00 | 41 | 1031.9 |
| 20260906143106 | 17 | 131 | 1.6 | 1.6 | 0.00 | 0.03 | 0.00 | 42 | 1032.0 |
| 20260906141607 | 18 | 0 | 0.0 | 1.6 | 0.00 | 0.03 | 0.00 | 39 | 1032.2 |
| 20260906140110 | 17 | 131 | 0.0 | 1.6 | 0.00 | 0.03 | 0.00 | 41 | 1031.9 |
| 20260906134631 | 16 | 0 | 0.0 | 0.0 | 0.00 | 0.03 | 0.00 | 46 | 1031.9 |
| 20260906133104 | 15 | 278 | 0.0 | 1.6 | 0.00 | 0.03 | 0.00 | 46 | 1031.6 |
| 20260906131558 | 13 | 278 | 0.0 | 1.6 | 0.00 | 0.03 | 0.00 | 48 | 1031.5 |
| 20260906130107 | 13 | 278 | 1.6 | 1.6 | 0.00 | 0.03 | 0.00 | 48 | 1031.5 |
| 20260906124608 | 13 | 0 | 0.0 | 3.2 | 0.00 | 0.03 | 0.00 | 48 | 1031.3 |
| 20260906123102 | 13 | 278 | 0.0 | 1.6 | 0.00 | 0.03 | 0.00 | 47 | 1031.2 |
| 20260906121602 | 13 | 278 | 1.6 | 3.2 | 0.00 | 0.03 | 0.00 | 48 | 1031.1 |
| 20260906120054 | 14 | 251 | 1.6 | 6.4 | 0.00 | 0.03 | 0.00 | 45 | 1031.1 |
| 20260906114631 | 14 | 281 | 1.6 | 8.0 | 0.00 | 0.03 | 0.00 | 46 | 1031.2 |
| 20260906113101 | 13 | 276 | 1.6 | 4.8 | 0.00 | 0.03 | 0.00 | 48 | 1031.2 |
| 20260906111621 | 13 | 281 | 1.6 | 3.2 | 0.00 | 0.03 | 0.00 | 53 | 1031.2 |
| 20260906104606 | 13 | 65 | 1.6 | 3.2 | 0.00 | 0.03 | 0.00 | 50 | 1031.2 |
| 20260906103053 | 13 | 277 | 1.6 | 3.2 | 0.00 | 0.03 | 0.00 | 45 | 1031.1 |
| 20260906101601 | 15 | 276 | 1.6 | 4.8 | 0.00 | 0.03 | 0.00 | 42 | 1031.2 |
| 20260906100059 | 15 | 274 | 3.2 | 6.4 | 0.00 | 0.03 | 0.00 | 41 | 1031.2 |
| 20260906094558 | 15 | 281 | 1.6 | 3.2 | 0.00 | 0.03 | 0.00 | 44 | 1031.2 |
| 20260906093101 | 16 | 269 | 1.6 | 6.4 | 0.00 | 0.03 | 0.00 | 44 | 1031.3 |
| 20260906091607 | 16 | 239 | 1.6 | 6.4 | 0.00 | 0.03 | 0.00 | 44 | 1031.3 |
| 20260906090115 | 15 | 243 | 1.6 | 3.2 | 0.00 | 0.03 | 0.00 | 46 | 1031.3 |
| 20260906084608 | 16 | 221 | 3.2 | 8.0 | 0.00 | 0.03 | 0.00 | 44 | 1031.2 |
| 20260906083103 | 16 | 296 | 4.8 | 11.3 | 0.00 | 0.03 | 0.00 | 44 | 1031.1 |
| 20260906081606 | 16 | 280 | 4.8 | 11.3 | 0.00 | 0.03 | 0.00 | 44 | 1031.3 |
| 20260906074616 | 16 | 217 | 4.8 | 9.7 | 0.00 | 0.03 | 0.00 | 45 | 1031.5 |
| 20260906073109 | 16 | 231 | 4.8 | 9.7 | 0.00 | 0.03 | 0.00 | 47 | 1031.5 |
| 20260906071609 | 16 | 233 | 1.6 | 9.7 | 0.00 | 0.03 | 0.00 | 48 | 1031.6 |
| 20260906070138 | 15 | 232 | 4.8 | 9.7 | 0.00 | 0.03 | 0.00 | 49 | 1031.5 |
| 20260906064608 | 15 | 215 | 4.8 | 11.3 | 0.00 | 0.03 | 0.00 | 50 | 1031.6 |
| 20260906063117 | 15 | 226 | 4.8 | 9.7 | 0.00 | 0.03 | 0.00 | 51 | 1031.8 |
| 20260906061637 | 15 | 334 | 3.2 | 16.1 | 0.00 | 0.03 | 0.00 | 52 | 1031.7 |
| 20260906060111 | 16 | 205 | 3.2 | 16.1 | 0.00 | 0.03 | 0.00 | 50 | 1032.1 |
| 20260906054553 | 16 | 190 | 6.4 | 14.5 | 0.00 | 0.03 | 0.03 | 48 | 1032.1 |
| 20260906053058 | 16 | 214 | 6.4 | 19.3 | 0.00 | 0.03 | 0.03 | 49 | 1032.1 |
| 20260906051553 | 16 | 215 | 6.4 | 16.1 | 0.00 | 0.03 | 0.03 | 49 | 1032.2 |
| 20260906050115 | 15 | 159 | 1.6 | 4.8 | 0.00 | 0.03 | 0.03 | 51 | 1032.2 |
| 20260906044559 | 15 | 283 | 3.2 | 8.0 | 0.03 | 0.03 | 0.03 | 55 | 1032.2 |
| 20260906043108 | 15 | 291 | 3.2 | 9.7 | 0.03 | 0.03 | 0.03 | 52 | 1032.2 |
| 20260906041602 | 15 | 235 | 6.4 | 17.7 | 0.03 | 0.03 | 0.03 | 56 | 1032.5 |
| 20260906040119 | 14 | 269 | 4.8 | 19.3 | 0.03 | 0.03 | 0.03 | 64 | 1032.6 |
| 20260906034558 | 17 | 289 | 1.6 | 8.0 | 0.00 | 0.00 | 0.00 | 43 | 1032.2 |
| 20260906033057 | 16 | 273 | 4.8 | 8.0 | 0.00 | 0.00 | 0.00 | 44 | 1032.0 |
| 20260906031609 | 16 | 273 | 3.2 | 6.4 | 0.00 | 0.00 | 0.00 | 44 | 1032.1 |
| 20260906030109 | 16 | 280 | 1.6 | 8.0 | 0.00 | 0.00 | 0.00 | 45 | 1031.9 |
| 20260906024557 | 16 | 271 | 3.2 | 4.8 | 0.00 | 0.00 | 0.00 | 46 | 1031.7 |
| 20260906023130 | 15 | 262 | 1.6 | 6.4 | 0.00 | 0.00 | 0.00 | 47 | 1031.7 |
| 20260906021600 | 15 | 278 | 1.6 | 8.0 | 0.00 | 0.00 | 0.00 | 49 | 1031.7 |
| 20260906020058 | 15 | 263 | 3.2 | 9.7 | 0.00 | 0.00 | 0.00 | 51 | 1031.5 |
| 20260906014626 | 15 | 243 | 3.2 | 11.3 | 0.00 | 0.00 | 0.00 | 52 | 1031.3 |
| 20260906013101 | 15 | 245 | 3.2 | 12.9 | 0.00 | 0.00 | 0.00 | 55 | 1031.6 |
| 20260906011601 | 16 | 304 | 3.2 | 9.7 | 0.00 | 0.00 | 0.00 | 51 | 1031.8 |
| 20260906010058 | 16 | 270 | 0.0 | 8.0 | 0.00 | 0.00 | 0.00 | 53 | 1031.6 |
| 20260906004607 | 16 | 0 | 0.0 | 1.6 | 0.00 | 0.00 | 0.00 | 52 | 1031.6 |
| 20260906003109 | 16 | 86 | 0.0 | 3.2 | 0.00 | 0.00 | 0.00 | 50 | 1031.7 |
| 20260906001603 | 16 | 260 | 0.0 | 3.2 | 0.00 | 0.00 | 0.00 | 52 | 1031.6 |
| 20260906000107 | 16 | 260 | 0.0 | 4.8 | 0.00 | 0.00 | 0.00 | 58 | 1031.8 |
| 20260905234557 | 16 | 213 | 0.0 | 1.6 | 0.00 | 0.00 | 0.00 | 54 | 1031.9 |
| 20260905233104 | 16 | 211 | 1.6 | 22.5 | 0.00 | 0.00 | 0.00 | 63 | 1031.9 |
| 20260905231602 | 20 | 218 | 8.0 | 17.7 | 0.00 | 0.00 | 0.00 | 35 | 1031.9 |
| 20260905230103 | 20 | 203 | 1.6 | 6.4 | 0.00 | 0.00 | 0.00 | 34 | 1031.5 |
| 20260905224604 | 21 | 126 | 3.2 | 6.4 | 0.00 | 0.00 | 0.00 | 32 | 1031.4 |
| 20260905223103 | 21 | 41 | 3.2 | 8.0 | 0.00 | 0.00 | 0.00 | 32 | 1031.4 |